createdAt,value
2023-01-08T06:03:12.463Z,98828.97
2023-01-08T06:05:39.393Z,98839.09
2023-01-08T06:08:08.438Z,98838.22
2023-01-08T06:10:38.767Z,98839.09
2023-01-08T06:13:09.632Z,98844.06
2023-01-08T06:15:39.493Z,98841.56
2023-01-08T06:18:06.174Z,98845.94
2023-01-08T06:20:33.082Z,98847.66
2023-01-08T06:22:59.675Z,98839.53
2023-01-08T06:25:26.849Z,98838.97
2023-01-08T06:27:53.430Z,98837.22
2023-01-08T06:30:20.302Z,98834.47
2023-01-08T06:32:46.826Z,98842.94
2023-01-08T06:35:13.785Z,98824.19
2023-01-08T06:37:40.307Z,98835.81
2023-01-08T06:40:07.629Z,98830.84
2023-01-08T06:42:34.183Z,98832.19
2023-01-08T06:45:01.412Z,98831.34
2023-01-08T06:47:27.926Z,98830.50
2023-01-08T06:49:55.116Z,98831.97
2023-01-08T06:52:21.721Z,98832.03
2023-01-08T06:54:48.571Z,98839.25
2023-01-08T06:57:15.136Z,98828.63
2023-01-08T06:59:42.346Z,98830.66
2023-01-08T07:02:14.597Z,98829.94
2023-01-08T07:04:43.065Z,98819.13
2023-01-08T07:07:13.252Z,98825.03
2023-01-08T07:09:41.758Z,98822.38
2023-01-08T07:12:14.928Z,98818.03
2023-01-08T07:14:42.277Z,98820.53
2023-01-08T07:17:09.240Z,98820.53
2023-01-08T07:19:36.180Z,98838.31
2023-01-08T07:22:02.809Z,98830.53
2023-01-08T07:24:30.060Z,98829.50
2023-01-08T07:26:56.752Z,98829.44
2023-01-08T07:29:24.040Z,98826.69
2023-01-08T07:31:50.653Z,98833.00
2023-01-08T07:34:17.942Z,98833.63
2023-01-08T07:36:44.525Z,98831.84
2023-01-08T07:39:11.806Z,98828.47
2023-01-08T07:41:38.378Z,98836.44
2023-01-08T07:44:05.821Z,98827.56
2023-01-08T07:46:32.500Z,98824.75
2023-01-08T07:48:59.831Z,98831.59
2023-01-08T07:51:26.430Z,98833.56
2023-01-08T07:53:56.427Z,98826.53
2023-01-08T07:56:24.831Z,98827.22
2023-01-08T07:58:52.473Z,98833.22
2023-01-08T08:01:19.363Z,98829.28
2023-01-08T08:03:46.681Z,98836.59
2023-01-08T08:06:13.397Z,98835.81
2023-01-08T08:08:42.160Z,98836.59
2023-01-08T08:11:09.364Z,98830.22
2023-01-08T08:13:37.166Z,98823.97
2023-01-08T08:16:05.340Z,98826.06
2023-01-08T08:18:32.664Z,98827.25
2023-01-08T08:20:59.321Z,98819.91
2023-01-08T08:23:26.564Z,98819.28
2023-01-08T08:25:53.128Z,98819.13
2023-01-08T08:28:20.341Z,98825.78
2023-01-08T08:30:47.092Z,98824.13
2023-01-08T08:33:14.309Z,98819.63
2023-01-08T08:35:41.019Z,98808.94
2023-01-08T08:38:08.288Z,98813.28
2023-01-08T08:40:34.884Z,98806.03
2023-01-08T08:43:04.329Z,98810.25
2023-01-08T08:45:31.241Z,98805.84
2023-01-08T08:47:58.475Z,98808.66
2023-01-08T08:50:25.231Z,98815.72
2023-01-08T08:52:52.538Z,98812.91
2023-01-08T08:55:19.216Z,98811.16
2023-01-08T08:57:47.560Z,98812.78
2023-01-08T09:00:15.400Z,98813.41
2023-01-08T09:02:43.560Z,98811.47
2023-01-08T09:05:11.025Z,98809.28
2023-01-08T09:07:38.587Z,98817.06
2023-01-08T09:10:05.610Z,98819.38
2023-01-08T09:12:32.859Z,98825.56
2023-01-08T09:14:59.389Z,98820.59
2023-01-08T09:17:26.757Z,98820.72
2023-01-08T09:19:53.343Z,98827.81
2023-01-08T09:22:21.043Z,98816.50
2023-01-08T09:24:47.702Z,98819.94
2023-01-08T09:27:15.372Z,98818.22
2023-01-08T09:29:41.982Z,98813.84
2023-01-08T09:32:09.558Z,98821.72
2023-01-08T09:34:36.285Z,98814.78
2023-01-08T09:37:03.980Z,98814.69
2023-01-08T09:39:31.334Z,98811.91
2023-01-08T09:42:01.296Z,98811.72
2023-01-08T09:44:35.212Z,98808.47
2023-01-08T09:47:04.478Z,98811.72
2023-01-08T09:49:41.907Z,98818.91
2023-01-08T09:52:13.806Z,98819.16
2023-01-08T09:54:40.941Z,98827.09
2023-01-08T09:57:17.937Z,98821.91
2023-01-08T09:59:47.859Z,98821.00
2023-01-08T10:02:20.960Z,98828.97
2023-01-08T10:04:54.579Z,98823.59
2023-01-08T10:07:26.751Z,98807.22
2023-01-08T10:09:54.138Z,98810.22
2023-01-08T10:12:27.503Z,98807.56
2023-01-08T10:14:57.130Z,98814.56
2023-01-08T10:17:40.010Z,98803.97
2023-01-08T10:20:19.407Z,98809.94
2023-01-08T10:22:48.216Z,98802.09
2023-01-08T10:25:20.677Z,98803.97
2023-01-08T10:27:52.992Z,98801.31
2023-01-08T10:30:40.034Z,98809.09
2023-01-08T10:33:13.108Z,98800.19
2023-01-08T10:35:41.687Z,98798.25
2023-01-08T10:38:31.516Z,98794.56
2023-01-08T10:41:02.004Z,98796.19
2023-01-08T10:43:41.364Z,98803.16
2023-01-08T10:46:19.235Z,98799.47
2023-01-08T10:48:52.026Z,98792.34
2023-01-08T10:51:21.605Z,98784.22
2023-01-08T10:53:49.082Z,98780.97
2023-01-08T10:56:24.561Z,98781.75
2023-01-08T10:58:52.509Z,98769.91
2023-01-08T11:01:31.486Z,98766.56
2023-01-08T11:03:58.633Z,98770.25
2023-01-08T11:06:41.876Z,98763.03
2023-01-08T11:09:28.159Z,98766.97
2023-01-08T11:11:55.131Z,98773.06
2023-01-08T11:14:26.903Z,98768.69
2023-01-08T11:16:54.947Z,98766.97
2023-01-08T11:19:33.470Z,98762.84
2023-01-08T11:22:05.600Z,98766.25
2023-01-08T11:24:32.782Z,98759.19
2023-01-08T11:27:16.711Z,98753.78
2023-01-08T11:29:50.328Z,98754.63
2023-01-08T11:32:42.009Z,98752.25
2023-01-08T11:35:18.702Z,98745.66
2023-01-08T11:37:54.438Z,98737.63
2023-01-08T11:40:43.329Z,98738.38
2023-01-08T11:43:30.720Z,98724.00
2023-01-08T11:46:00.711Z,98719.47
2023-01-08T11:48:27.492Z,98717.66
2023-01-08T11:51:31.070Z,98707.16
2023-01-08T11:54:07.450Z,98699.00
2023-01-08T11:56:42.535Z,98692.84
2023-01-08T11:59:09.655Z,98683.41
2023-01-08T12:02:02.222Z,98671.44
2023-01-08T12:04:39.695Z,98679.28
2023-01-08T12:07:24.552Z,98672.28
2023-01-08T12:10:38.361Z,98663.78
2023-01-08T12:13:13.841Z,98664.25
2023-01-08T12:16:07.010Z,98657.03
2023-01-08T12:18:36.817Z,98652.91
2023-01-08T12:21:25.179Z,98649.91
2023-01-08T12:24:23.234Z,98635.50
2023-01-08T12:27:10.702Z,98633.41
2023-01-08T12:29:50.007Z,98638.41
2023-01-08T12:32:31.677Z,98626.44
2023-01-08T12:35:08.570Z,98618.22
2023-01-08T12:37:44.419Z,98616.97
2023-01-08T12:40:20.618Z,98616.13
2023-01-08T12:42:59.890Z,98612.50
2023-01-08T12:45:30.891Z,98616.31
2023-01-08T12:48:16.807Z,98609.97
2023-01-08T12:51:08.223Z,98611.13
2023-01-08T12:53:53.637Z,98607.31
2023-01-08T12:56:38.380Z,98594.81
2023-01-08T12:59:11.478Z,98591.19
2023-01-08T13:02:04.966Z,98587.78
2023-01-08T13:04:47.352Z,98577.63
2023-01-08T13:07:24.579Z,98573.94
2023-01-08T13:10:08.108Z,98580.56
2023-01-08T13:12:41.093Z,98578.00
2023-01-08T13:15:08.711Z,98572.88
2023-01-08T13:17:38.277Z,98570.13
2023-01-08T13:20:07.184Z,98565.75
2023-01-08T13:22:37.240Z,98562.91
2023-01-08T13:25:15.717Z,98562.13
2023-01-08T13:27:43.954Z,98559.28
2023-01-08T13:30:32.401Z,98557.41
2023-01-08T13:32:59.830Z,98545.25
2023-01-08T13:35:29.578Z,98555.00
2023-01-08T13:38:25.885Z,98546.75
2023-01-08T13:40:56.644Z,98535.59
2023-01-08T13:43:52.029Z,98536.50
2023-01-08T13:46:19.945Z,98539.94
2023-01-08T13:48:58.017Z,98545.44
2023-01-08T13:51:41.713Z,98521.72
2023-01-08T13:54:37.756Z,98532.34
2023-01-08T13:57:15.115Z,98524.84
2023-01-08T13:59:49.995Z,98524.00
2023-01-08T14:02:22.483Z,98522.28
2023-01-08T14:04:51.501Z,98520.38
2023-01-08T14:07:18.614Z,98523.81
2023-01-08T14:09:46.095Z,98522.06
2023-01-08T14:12:15.873Z,98516.59
2023-01-08T14:15:01.485Z,98511.09
2023-01-08T14:17:31.413Z,98513.19
2023-01-08T14:19:59.790Z,98507.00
2023-01-08T14:22:34.734Z,98510.59
2023-01-08T14:25:06.657Z,98511.44
2023-01-08T14:27:34.933Z,98500.66
2023-01-08T14:30:02.457Z,98497.22
2023-01-08T14:32:30.774Z,98495.69
2023-01-08T14:35:01.385Z,98493.81
2023-01-08T14:37:27.992Z,98495.88
2023-01-08T14:39:55.444Z,98494.19
2023-01-08T14:42:44.217Z,98505.38
2023-01-08T14:45:16.485Z,98494.56
2023-01-08T14:47:45.787Z,98492.47
2023-01-08T14:50:23.838Z,98490.16
2023-01-08T14:52:53.216Z,98494.63
2023-01-08T14:55:21.484Z,98484.00
2023-01-08T14:57:52.671Z,98497.59
2023-01-08T15:00:30.544Z,98498.72
2023-01-08T15:02:57.938Z,98492.44
2023-01-08T15:05:29.290Z,98497.94
2023-01-08T15:08:20.712Z,98501.38
2023-01-08T15:10:58.621Z,98506.69
2023-01-08T15:13:31.701Z,98489.97
2023-01-08T15:16:04.953Z,98493.09
2023-01-08T15:18:33.782Z,98506.13
2023-01-08T15:21:00.463Z,98505.72
2023-01-08T15:23:38.097Z,98500.13
2023-01-08T15:26:04.973Z,98504.84
2023-01-08T15:28:32.287Z,98498.34
2023-01-08T15:30:58.995Z,98502.56
2023-01-08T15:33:27.664Z,98499.47
2023-01-08T15:35:55.133Z,98498.56
2023-01-08T15:38:24.078Z,98496.84
2023-01-08T15:40:53.282Z,98491.50
2023-01-08T15:43:21.881Z,98493.22
2023-01-08T15:45:50.006Z,98498.50
2023-01-08T15:48:17.332Z,98491.88
2023-01-08T15:50:44.588Z,98489.03
2023-01-08T15:53:17.100Z,98487.91
2023-01-08T15:55:45.749Z,98489.97
2023-01-08T15:58:13.788Z,98485.97
2023-01-08T16:00:42.271Z,98488.06
2023-01-08T16:03:11.634Z,98485.53
2023-01-08T16:05:38.380Z,98492.53
2023-01-08T16:08:05.878Z,98488.91
2023-01-08T16:10:33.520Z,98498.84
2023-01-08T16:13:01.983Z,98491.31
2023-01-08T16:15:30.726Z,98488.72
2023-01-08T16:17:59.254Z,98495.81
2023-01-08T16:20:26.528Z,98489.75
2023-01-08T16:22:55.055Z,98493.34
2023-01-08T16:25:21.717Z,98504.13
2023-01-08T16:27:48.970Z,98501.63
2023-01-08T16:30:15.965Z,98504.44
2023-01-08T16:32:43.257Z,98507.34
2023-01-08T16:35:10.827Z,98503.22
2023-01-08T16:37:39.264Z,98504.41
2023-01-08T16:40:06.603Z,98502.00
2023-01-08T16:42:33.970Z,98496.88
2023-01-08T16:45:00.702Z,98492.72
2023-01-08T16:47:27.998Z,98499.91
2023-01-08T16:49:54.599Z,98490.34
2023-01-08T16:52:21.791Z,98490.63
2023-01-08T16:54:48.496Z,98490.78
2023-01-08T16:57:15.491Z,98487.25
2023-01-08T16:59:42.838Z,98481.31
2023-01-08T17:02:10.769Z,98479.59
2023-01-08T17:04:37.474Z,98485.72
2023-01-08T17:07:05.070Z,98486.63
2023-01-08T17:09:32.577Z,98483.81
2023-01-08T17:11:59.115Z,98482.84
2023-01-08T17:14:26.360Z,98480.03
2023-01-08T17:16:53.065Z,98469.47
2023-01-08T17:19:20.697Z,98469.47
2023-01-08T17:21:50.220Z,98472.03
2023-01-08T17:24:17.407Z,98463.47
2023-01-08T17:26:44.131Z,98467.75
2023-01-08T17:29:11.597Z,98470.47
2023-01-08T17:31:41.494Z,98465.91
2023-01-08T17:34:13.335Z,98459.66
2023-01-08T17:36:40.506Z,98464.78
2023-01-08T17:39:07.904Z,98462.22
2023-01-08T17:41:56.095Z,98456.09
2023-01-08T17:44:23.425Z,98462.13
2023-01-08T17:46:50.246Z,98462.13
2023-01-08T17:49:17.703Z,98458.56
2023-01-08T17:51:45.863Z,98458.56
2023-01-08T17:54:15.419Z,98456.94
2023-01-08T17:56:43.210Z,98450.84
2023-01-08T17:59:14.968Z,98459.75
2023-01-08T18:01:41.967Z,98456.31
2023-01-08T18:04:09.200Z,98452.66
2023-01-08T18:06:36.029Z,98448.16
2023-01-08T18:09:04.619Z,98449.84
2023-01-08T18:11:31.333Z,98446.41
2023-01-08T18:14:00.877Z,98451.66
2023-01-08T18:16:29.338Z,98442.84
2023-01-08T18:18:57.696Z,98442.75
2023-01-08T18:21:25.024Z,98437.56
2023-01-08T18:23:52.395Z,98435.81
2023-01-08T18:26:20.703Z,98435.81
2023-01-08T18:28:49.156Z,98434.28
2023-01-08T18:31:15.828Z,98425.47
2023-01-08T18:33:43.185Z,98426.59
2023-01-08T18:36:12.116Z,98427.38
2023-01-08T18:38:41.245Z,98430.25
2023-01-08T18:41:09.642Z,98419.91
2023-01-08T18:43:37.167Z,98418.50
2023-01-08T18:46:06.133Z,98415.94
2023-01-08T18:48:35.045Z,98417.13
2023-01-08T18:51:07.076Z,98407.56
2023-01-08T18:53:34.404Z,98414.09
2023-01-08T18:56:01.843Z,98415.97
2023-01-08T18:58:29.476Z,98414.25
2023-01-08T19:01:01.653Z,98408.34
2023-01-08T19:03:28.899Z,98417.34
2023-01-08T19:05:55.455Z,98403.50
2023-01-08T19:08:22.639Z,98398.22
2023-01-08T19:10:50.153Z,98400.19
2023-01-08T19:13:19.452Z,98404.69
2023-01-08T19:15:46.986Z,98396.34
2023-01-08T19:18:14.347Z,98399.00
2023-01-08T19:20:43.204Z,98395.44
2023-01-08T19:23:10.459Z,98392.00
2023-01-08T19:25:39.336Z,98394.19
2023-01-08T19:28:07.535Z,98380.97
2023-01-08T19:30:34.542Z,98373.19
2023-01-08T19:33:01.881Z,98370.94
2023-01-08T19:35:28.618Z,98366.72
2023-01-08T19:37:55.908Z,98365.09
2023-01-08T19:40:22.665Z,98356.53
2023-01-08T19:43:08.481Z,98354.75
2023-01-08T19:45:38.117Z,98351.56
2023-01-08T19:48:05.947Z,98344.59
2023-01-08T19:50:34.061Z,98343.63
2023-01-08T19:53:01.352Z,98346.44
2023-01-08T19:55:28.201Z,98337.56
2023-01-08T19:57:55.429Z,98340.44
2023-01-08T20:00:22.405Z,98329.00
2023-01-08T20:02:51.638Z,98327.31
2023-01-08T20:05:18.531Z,98323.03
2023-01-08T20:07:45.841Z,98330.22
2023-01-08T20:10:14.775Z,98322.44
2023-01-08T20:12:41.629Z,98323.31
2023-01-08T20:15:09.171Z,98321.53
2023-01-08T20:17:36.451Z,98322.59
2023-01-08T20:20:03.471Z,98316.63
2023-01-08T20:22:31.429Z,98314.03
2023-01-08T20:24:58.655Z,98312.34
2023-01-08T20:27:25.940Z,98304.56
2023-01-08T20:29:52.509Z,98300.94
2023-01-08T20:32:22.082Z,98301.16
2023-01-08T20:34:50.351Z,98297.88
2023-01-08T20:37:17.632Z,98303.94
2023-01-08T20:39:44.218Z,98301.16
2023-01-08T20:42:12.319Z,98303.63
2023-01-08T20:44:43.985Z,98307.84
2023-01-08T20:47:11.227Z,98300.34
2023-01-08T20:49:37.888Z,98303.69
2023-01-08T20:52:05.131Z,98298.19
2023-01-08T20:54:31.700Z,98297.19
2023-01-08T20:56:59.839Z,98296.34
2023-01-08T20:59:27.316Z,98300.78
2023-01-08T21:01:54.616Z,98295.56
2023-01-08T21:04:22.925Z,98285.94
2023-01-08T21:06:50.110Z,98284.19
2023-01-08T21:09:17.740Z,98276.38
2023-01-08T21:11:45.027Z,98267.88
2023-01-08T21:14:11.973Z,98264.63
2023-01-08T21:16:40.988Z,98258.56
2023-01-08T21:19:10.123Z,98265.78
2023-01-08T21:21:40.647Z,98259.72
2023-01-08T21:24:09.046Z,98263.28
2023-01-08T21:26:37.919Z,98257.31
2023-01-08T21:29:06.292Z,98255.59
